Ephrata, Washington
Current Conditions -  °F | °C
As of 7:53 AM on Saturday 25 Oct 2014 (Local Time) from KEPH Reporting Station
Clear Clear  
Wind Chill: 43°   Ceiling: Unl
Heat Index: 48°   Visibility: 10mi
Dew Point: 42°   Wind: 10mph
Humidity: 80%   Direction: 340°NNW
Pressure: 29.66"   Gusts: NA
Location:  47.32°N, 119.55°W
Report Text: KEPH 251453Z AUTO 34009KT 10SM CLR 09/06 A2966 RMK AO2 SLP045 T00890056 56029
Loading
Personal Weather Stations






























Interactive Weather Map
Tropical Storm Tracking
New forecast layout! Learn more

10-Day Weather Forecast

Advertisements
Track Severe Weather on mobile